Terminal Aerodrome Forecast
Issued by NWS Sioux Falls, SD

Home | Current Version | Previous Version | Text Only | Print | Product List | Glossary On
Versions: 1 2 3 4 5 6 7 8 9 10 11 12 13 14 15 16 17
000
FTUS43 KFSD 272323
TAFHON
TAF
KHON 272323Z 2800/2824 22012KT P6SM SCT060 BKN120
      TEMPO 2800/2802 2SM TSRA OVC050CB
     FM280300 34009KT P6SM BKN090
     FM280700 34006KT P6SM SKC
     FM281500 35013KT P6SM SCT050=

USA.gov is the U.S. government's official web portal to all federal, state and local government web resources and services.